Fisher, West Virginia
Current Conditions -  °F | °C
As of 12:55 PM on Tuesday 21 Oct 2014 (Local Time) from K8W2 Reporting Station
Overcast Overcast  
Wind Chill: 63°   Ceiling: 5500
Heat Index: 63°   Visibility: 10mi
Dew Point: 46°   Wind: 7mph
Humidity: 53%   Direction: 250°WSW
Pressure: 29.85"   Gusts: NA
Location:  39.05°N, 79°W
Report Text: K8W2 211655Z AUTO 25006KT 10SM SCT048 BKN055 OVC100 17/08 A2985 RMK AO1 T01720075
Loading
Personal Weather Stations






























Interactive Weather Map
Tropical Storm Tracking
New forecast layout! Learn more

10-Day Weather Forecast

Advertisements
Track Severe Weather on mobile